createdAt,value
2022-09-12T00:00:13.668Z,0.00
2022-09-12T00:00:48.588Z,0.00
2022-09-12T00:01:21.220Z,0.00
2022-09-12T00:01:52.833Z,0.00
2022-09-12T00:02:23.609Z,0.00
2022-09-12T00:02:56.832Z,0.00
2022-09-12T00:03:28.387Z,0.00
2022-09-12T00:03:51.155Z,0.00
2022-09-12T00:04:16.649Z,0.00
2022-09-12T00:04:49.686Z,0.00
2022-09-12T00:05:20.945Z,0.00
2022-09-12T00:05:53.186Z,0.00
2022-09-12T00:06:23.396Z,0.00
2022-09-12T00:06:56.654Z,0.00
2022-09-12T00:07:28.446Z,0.00
2022-09-12T00:07:50.992Z,0.00
2022-09-12T00:08:13.579Z,0.00
2022-09-12T00:08:48.466Z,0.00
2022-09-12T00:09:21.143Z,0.00
2022-09-12T00:09:52.480Z,0.00
2022-09-12T00:10:22.739Z,0.00
2022-09-12T00:10:57.789Z,0.00
2022-09-12T00:11:29.428Z,0.00
2022-09-12T00:11:52.520Z,0.00
2022-09-12T00:12:15.078Z,0.00
2022-09-12T00:12:48.404Z,0.00
2022-09-12T00:13:21.736Z,0.00
2022-09-12T00:13:52.839Z,0.00
2022-09-12T00:14:22.734Z,0.00
2022-09-12T00:14:57.194Z,0.00
2022-09-12T00:15:28.762Z,0.00
2022-09-12T00:15:51.338Z,0.00
2022-09-12T00:16:13.847Z,0.00
2022-09-12T00:16:49.061Z,0.00
2022-09-12T00:17:20.419Z,0.00
2022-09-12T00:17:52.477Z,0.00
2022-09-12T00:18:22.642Z,0.00
2022-09-12T00:18:56.347Z,0.00
2022-09-12T00:19:28.479Z,0.00
2022-09-12T00:19:51.044Z,0.00
2022-09-12T00:20:13.918Z,0.00
2022-09-12T00:20:49.184Z,0.00
2022-09-12T00:21:20.400Z,0.00
2022-09-12T00:21:52.453Z,0.00
2022-09-12T00:22:22.651Z,0.00
2022-09-12T00:22:56.643Z,0.00
2022-09-12T00:23:28.294Z,0.00
2022-09-12T00:23:51.027Z,0.00
2022-09-12T00:24:14.356Z,0.00
2022-09-12T00:24:48.793Z,0.00
2022-09-12T00:25:20.942Z,0.00
2022-09-12T00:25:52.499Z,0.00
2022-09-12T00:26:22.939Z,0.00
2022-09-12T00:26:56.346Z,0.00
2022-09-12T00:27:28.455Z,0.00
2022-09-12T00:27:51.097Z,0.00
2022-09-12T00:28:13.554Z,0.00
2022-09-12T00:28:49.201Z,0.00
2022-09-12T00:29:20.322Z,0.00
2022-09-12T00:29:52.931Z,0.00
2022-09-12T00:30:22.673Z,0.00
2022-09-12T00:30:56.312Z,0.00
2022-09-12T00:31:28.725Z,0.00
2022-09-12T00:31:51.577Z,0.00
2022-09-12T00:32:14.443Z,0.00
2022-09-12T00:32:48.596Z,0.00
2022-09-12T00:33:21.438Z,0.00
2022-09-12T00:33:52.381Z,0.00
2022-09-12T00:34:23.124Z,0.00
2022-09-12T00:34:56.509Z,0.00
2022-09-12T00:35:29.902Z,0.00
2022-09-12T00:35:51.436Z,0.00
2022-09-12T00:36:13.509Z,0.00
2022-09-12T00:36:48.560Z,0.00
2022-09-12T00:37:20.708Z,0.00
2022-09-12T00:37:52.644Z,0.00
2022-09-12T00:38:22.776Z,0.00
2022-09-12T00:38:56.827Z,0.00
2022-09-12T00:39:28.313Z,0.00
2022-09-12T00:39:51.176Z,0.00
2022-09-12T00:40:14.988Z,0.00
2022-09-12T00:40:48.382Z,0.00
2022-09-12T00:41:20.687Z,0.00
2022-09-12T00:41:52.354Z,0.00
2022-09-12T00:42:22.936Z,0.00
2022-09-12T00:42:56.795Z,0.00
2022-09-12T00:43:29.206Z,0.00
2022-09-12T00:43:51.608Z,0.00
2022-09-12T00:44:14.188Z,0.00
2022-09-12T00:44:48.562Z,0.00
2022-09-12T00:45:20.323Z,0.00
2022-09-12T00:45:52.401Z,0.00
2022-09-12T00:46:22.900Z,0.00
2022-09-12T00:46:58.475Z,0.00
2022-09-12T00:47:28.335Z,0.00
2022-09-12T00:47:50.971Z,0.00
2022-09-12T00:48:14.334Z,0.00
2022-09-12T00:48:48.545Z,0.00
2022-09-12T00:49:20.564Z,0.00
2022-09-12T00:49:52.506Z,0.00
2022-09-12T00:50:22.943Z,0.00
2022-09-12T00:50:56.343Z,0.00
2022-09-12T00:51:29.062Z,0.00
2022-09-12T00:51:51.821Z,0.00
2022-09-12T00:52:14.130Z,0.00
2022-09-12T00:52:49.262Z,0.00
2022-09-12T00:53:20.397Z,0.00
2022-09-12T00:53:52.468Z,0.00
2022-09-12T00:54:23.068Z,0.00
2022-09-12T00:54:57.538Z,0.00
2022-09-12T00:55:28.495Z,0.00
2022-09-12T00:55:51.479Z,0.00
2022-09-12T00:56:13.678Z,0.00
2022-09-12T00:56:49.163Z,0.00
2022-09-12T00:57:20.287Z,0.00
2022-09-12T00:57:52.185Z,0.00
2022-09-12T00:58:22.685Z,0.00
2022-09-12T00:58:56.189Z,0.00
2022-09-12T00:59:28.265Z,0.00
2022-09-12T00:59:51.051Z,0.00
2022-09-12T01:00:13.523Z,0.00
2022-09-12T01:00:49.776Z,0.00
2022-09-12T01:01:20.377Z,0.00
2022-09-12T01:01:52.945Z,0.00
2022-09-12T01:02:23.027Z,0.00
2022-09-12T01:02:56.850Z,0.00
2022-09-12T01:03:28.583Z,0.00
2022-09-12T01:03:52.726Z,0.00
2022-09-12T01:04:17.091Z,0.00
2022-09-12T01:04:50.176Z,0.00
2022-09-12T01:05:21.011Z,0.00
2022-09-12T01:05:52.475Z,0.00
2022-09-12T01:06:22.790Z,0.00
2022-09-12T01:06:56.336Z,0.00
2022-09-12T01:07:28.991Z,0.00
2022-09-12T01:07:51.802Z,0.00
2022-09-12T01:08:14.406Z,0.00
2022-09-12T01:08:50.696Z,0.00
2022-09-12T01:09:20.233Z,0.00
2022-09-12T01:09:53.348Z,0.00
2022-09-12T01:10:22.761Z,0.00
2022-09-12T01:11:01.548Z,0.00
2022-09-12T01:11:28.563Z,0.00
2022-09-12T01:11:51.293Z,0.00
2022-09-12T01:12:13.850Z,0.00
2022-09-12T01:12:48.357Z,0.00
2022-09-12T01:13:25.963Z,0.00
2022-09-12T01:13:52.592Z,0.00
2022-09-12T01:14:24.048Z,0.00
2022-09-12T01:14:56.392Z,0.00
2022-09-12T01:15:28.516Z,0.00
2022-09-12T01:15:51.621Z,0.00
2022-09-12T01:16:13.556Z,0.00
2022-09-12T01:16:48.266Z,0.00
2022-09-12T01:17:20.262Z,0.00
2022-09-12T01:17:52.387Z,0.00
2022-09-12T01:18:22.865Z,0.00
2022-09-12T01:18:56.477Z,0.00
2022-09-12T01:19:28.317Z,0.00
2022-09-12T01:19:52.335Z,0.00
2022-09-12T01:20:15.396Z,0.00
2022-09-12T01:20:48.361Z,0.00
2022-09-12T01:21:20.343Z,0.00
2022-09-12T01:21:52.490Z,0.00
2022-09-12T01:22:22.670Z,0.00
2022-09-12T01:22:56.282Z,0.00
2022-09-12T01:23:28.829Z,0.00
2022-09-12T01:23:53.209Z,0.00
2022-09-12T01:24:13.678Z,0.00
2022-09-12T01:24:48.603Z,0.00
2022-09-12T01:25:20.458Z,0.00
2022-09-12T01:25:53.236Z,0.00
2022-09-12T01:26:22.851Z,0.00
2022-09-12T01:26:56.345Z,0.00
2022-09-12T01:27:28.158Z,0.00
2022-09-12T01:27:53.491Z,0.00
2022-09-12T01:28:13.734Z,0.00
2022-09-12T01:28:48.864Z,0.00
2022-09-12T01:29:25.827Z,0.00
2022-09-12T01:29:53.577Z,0.00
2022-09-12T01:30:22.752Z,0.00
2022-09-12T01:30:56.456Z,0.00
2022-09-12T01:31:30.425Z,0.00
2022-09-12T01:31:53.850Z,0.00
2022-09-12T01:32:14.954Z,0.00
2022-09-12T01:32:53.945Z,0.00
2022-09-12T01:33:20.453Z,0.00
2022-09-12T01:33:54.995Z,0.00
2022-09-12T01:34:22.748Z,0.00
2022-09-12T01:34:57.157Z,0.00
2022-09-12T01:35:28.316Z,0.00
2022-09-12T01:35:50.979Z,0.00
2022-09-12T01:36:13.383Z,0.00
2022-09-12T01:36:48.573Z,0.00
2022-09-12T01:37:20.264Z,0.00
2022-09-12T01:37:55.225Z,0.00
2022-09-12T01:38:23.812Z,0.00
2022-09-12T01:38:56.336Z,0.00
2022-09-12T01:39:28.610Z,0.00
2022-09-12T01:39:51.295Z,0.00
2022-09-12T01:40:14.141Z,0.00
2022-09-12T01:40:48.457Z,0.00
2022-09-12T01:41:20.385Z,0.00
2022-09-12T01:41:54.588Z,0.00
2022-09-12T01:42:23.062Z,0.00
2022-09-12T01:42:56.813Z,0.00
2022-09-12T01:43:28.214Z,0.00
2022-09-12T01:43:51.451Z,0.00
2022-09-12T01:44:14.218Z,0.00
2022-09-12T01:44:48.585Z,0.00
2022-09-12T01:45:21.774Z,0.00
2022-09-12T01:45:52.456Z,0.00
2022-09-12T01:46:22.669Z,0.00
2022-09-12T01:46:56.475Z,0.00
2022-09-12T01:47:28.628Z,0.00
2022-09-12T01:47:51.216Z,0.00
2022-09-12T01:48:13.697Z,0.00
2022-09-12T01:48:48.296Z,0.00
2022-09-12T01:49:20.313Z,0.00
2022-09-12T01:49:53.095Z,0.00
2022-09-12T01:50:22.706Z,0.00
2022-09-12T01:50:56.748Z,0.00
2022-09-12T01:51:28.313Z,0.00
2022-09-12T01:51:51.029Z,0.00
2022-09-12T01:52:13.475Z,0.00
2022-09-12T01:52:48.178Z,0.00
2022-09-12T01:53:21.174Z,0.00
2022-09-12T01:53:52.241Z,0.00
2022-09-12T01:54:22.773Z,0.00
2022-09-12T01:54:57.595Z,0.00
2022-09-12T01:55:29.009Z,0.00
2022-09-12T01:55:51.655Z,0.00
2022-09-12T01:56:13.938Z,0.00
2022-09-12T01:56:49.790Z,0.00
2022-09-12T01:57:20.199Z,0.00
2022-09-12T01:57:52.345Z,0.00
2022-09-12T01:58:22.668Z,0.00
2022-09-12T01:58:57.818Z,0.00
2022-09-12T01:59:28.225Z,0.00
2022-09-12T01:59:50.929Z,0.00
2022-09-12T02:00:17.049Z,0.00
2022-09-12T02:00:48.538Z,0.00
2022-09-12T02:01:20.872Z,0.00
2022-09-12T02:01:53.463Z,0.00
2022-09-12T02:02:23.416Z,0.00
2022-09-12T02:03:00.002Z,0.00
2022-09-12T02:03:29.253Z,0.00
2022-09-12T02:03:57.384Z,0.00
2022-09-12T02:04:16.515Z,0.00
2022-09-12T02:04:49.319Z,0.00
2022-09-12T02:05:20.590Z,0.00
2022-09-12T02:05:53.464Z,0.00
2022-09-12T02:06:24.106Z,0.00
2022-09-12T02:06:59.466Z,0.00
2022-09-12T02:07:28.977Z,0.00
2022-09-12T02:07:51.671Z,0.00
2022-09-12T02:08:14.062Z,0.00
2022-09-12T02:08:48.225Z,0.00
2022-09-12T02:09:20.622Z,0.00
2022-09-12T02:09:52.286Z,0.00
2022-09-12T02:10:22.884Z,0.00
2022-09-12T02:10:56.329Z,0.00
2022-09-12T02:11:29.415Z,0.00
2022-09-12T02:11:52.360Z,0.00
2022-09-12T02:12:16.887Z,0.00
2022-09-12T02:12:49.369Z,0.00
2022-09-12T02:13:26.271Z,0.00
2022-09-12T02:13:53.074Z,0.00
2022-09-12T02:14:22.811Z,0.00
2022-09-12T02:15:00.784Z,0.00
2022-09-12T02:15:28.366Z,0.00
2022-09-12T02:15:50.929Z,0.00
2022-09-12T02:16:13.634Z,0.00
2022-09-12T02:16:48.442Z,0.00
2022-09-12T02:17:21.784Z,0.00
2022-09-12T02:17:52.141Z,0.00
2022-09-12T02:18:23.079Z,0.00
2022-09-12T02:18:56.288Z,0.00
2022-09-12T02:19:29.596Z,0.00
2022-09-12T02:19:52.301Z,0.00
2022-09-12T02:20:25.847Z,0.00
2022-09-12T02:20:49.529Z,0.00
2022-09-12T02:21:20.265Z,0.00
2022-09-12T02:21:52.084Z,0.00
2022-09-12T02:22:22.597Z,0.00
2022-09-12T02:22:56.353Z,0.00
2022-09-12T02:23:29.178Z,0.00
2022-09-12T02:23:51.294Z,0.00
2022-09-12T02:24:15.389Z,0.00
2022-09-12T02:24:48.331Z,0.00
2022-09-12T02:25:20.792Z,0.00
2022-09-12T02:25:52.823Z,0.00
2022-09-12T02:26:24.852Z,0.00
2022-09-12T02:26:56.747Z,0.00
2022-09-12T02:27:28.388Z,0.00
2022-09-12T02:27:51.027Z,0.00
2022-09-12T02:28:13.472Z,0.00
2022-09-12T02:28:48.615Z,0.00
2022-09-12T02:29:20.550Z,0.00
2022-09-12T02:29:53.442Z,0.00
2022-09-12T02:30:22.798Z,0.00
2022-09-12T02:30:56.443Z,0.00
2022-09-12T02:31:28.273Z,0.00
2022-09-12T02:31:50.788Z,0.00
2022-09-12T02:32:13.312Z,0.00
2022-09-12T02:32:48.400Z,0.00
2022-09-12T02:33:20.634Z,0.00
2022-09-12T02:33:52.471Z,0.00
2022-09-12T02:34:23.518Z,0.00
2022-09-12T02:34:56.398Z,0.00
2022-09-12T02:35:28.161Z,0.00
2022-09-12T02:35:50.968Z,0.00
2022-09-12T02:36:13.297Z,0.00
2022-09-12T02:36:48.290Z,0.00
2022-09-12T02:37:20.218Z,0.00
2022-09-12T02:37:52.835Z,0.00
2022-09-12T02:38:22.705Z,0.00
2022-09-12T02:38:57.062Z,0.00
2022-09-12T02:39:28.472Z,0.00
2022-09-12T02:39:51.271Z,0.00
2022-09-12T02:40:13.944Z,0.00
2022-09-12T02:40:48.374Z,0.00
2022-09-12T02:41:21.291Z,0.00
2022-09-12T02:41:52.752Z,0.00
2022-09-12T02:42:23.985Z,0.00
2022-09-12T02:42:56.689Z,0.00
2022-09-12T02:43:29.326Z,0.00
2022-09-12T02:43:52.019Z,0.00
2022-09-12T02:44:14.207Z,0.00
2022-09-12T02:44:48.333Z,0.00
2022-09-12T02:45:20.282Z,0.00
2022-09-12T02:45:52.901Z,0.00
2022-09-12T02:46:22.568Z,0.00
2022-09-12T02:46:56.911Z,0.00
2022-09-12T02:47:28.619Z,0.00
2022-09-12T02:47:51.445Z,0.00
2022-09-12T02:48:15.153Z,0.00
2022-09-12T02:48:48.350Z,0.00
2022-09-12T02:49:20.624Z,0.00
2022-09-12T02:49:52.335Z,0.00
2022-09-12T02:50:22.798Z,0.00
2022-09-12T02:50:56.198Z,0.00
2022-09-12T02:51:28.659Z,0.00
2022-09-12T02:51:51.295Z,0.00
2022-09-12T02:52:13.761Z,0.00
2022-09-12T02:52:48.265Z,0.00
2022-09-12T02:53:20.545Z,0.00
2022-09-12T02:53:52.059Z,0.00
2022-09-12T02:54:22.707Z,0.00
2022-09-12T02:54:56.601Z,0.00
2022-09-12T02:55:29.445Z,0.00
2022-09-12T02:55:52.233Z,0.00
2022-09-12T02:56:15.617Z,0.00
2022-09-12T02:56:48.608Z,0.00
2022-09-12T02:57:22.888Z,0.00
2022-09-12T02:57:52.632Z,0.00
2022-09-12T02:58:23.793Z,0.00
2022-09-12T02:58:56.352Z,0.00
2022-09-12T02:59:29.217Z,0.00
2022-09-12T02:59:51.937Z,0.00
2022-09-12T03:00:16.806Z,0.00
2022-09-12T03:00:49.402Z,0.00
2022-09-12T03:01:20.212Z,0.00
2022-09-12T03:01:52.762Z,0.00
2022-09-12T03:02:22.745Z,0.00
2022-09-12T03:02:56.454Z,0.00
2022-09-12T03:03:28.393Z,0.00
2022-09-12T03:03:51.079Z,0.00
2022-09-12T03:04:16.404Z,0.00
2022-09-12T03:04:48.338Z,0.00
2022-09-12T03:05:21.040Z,0.00
2022-09-12T03:05:52.420Z,0.00
2022-09-12T03:06:28.290Z,0.00
2022-09-12T03:06:56.309Z,0.00
2022-09-12T03:07:28.177Z,0.00
2022-09-12T03:07:50.864Z,0.00
2022-09-12T03:08:13.235Z,0.00
2022-09-12T03:08:48.318Z,0.00
2022-09-12T03:09:20.177Z,0.00
2022-09-12T03:09:52.168Z,0.00
2022-09-12T03:10:22.806Z,0.00
2022-09-12T03:10:57.515Z,0.00
2022-09-12T03:11:28.905Z,0.00
2022-09-12T03:11:51.664Z,0.00
2022-09-12T03:12:14.264Z,0.00
2022-09-12T03:12:48.711Z,0.00
2022-09-12T03:13:26.606Z,0.00
2022-09-12T03:13:52.283Z,0.00
2022-09-12T03:14:22.801Z,0.00
2022-09-12T03:14:56.605Z,0.00
2022-09-12T03:15:28.686Z,0.00
2022-09-12T03:15:51.402Z,0.00
2022-09-12T03:16:14.206Z,0.00
2022-09-12T03:16:48.528Z,0.00
2022-09-12T03:17:21.897Z,0.00
2022-09-12T03:17:53.029Z,0.00
2022-09-12T03:18:22.978Z,0.00
2022-09-12T03:18:57.231Z,0.00
2022-09-12T03:19:28.116Z,0.00
2022-09-12T03:19:50.829Z,0.00
2022-09-12T03:20:13.316Z,0.00
2022-09-12T03:20:48.604Z,0.00
2022-09-12T03:21:21.787Z,0.00
2022-09-12T03:21:52.165Z,0.00
2022-09-12T03:22:22.849Z,0.00
2022-09-12T03:22:57.057Z,0.00
2022-09-12T03:23:28.136Z,0.00
2022-09-12T03:23:50.772Z,0.00
2022-09-12T03:24:13.372Z,0.00
2022-09-12T03:24:48.410Z,0.00
2022-09-12T03:25:20.241Z,0.00
2022-09-12T03:25:52.958Z,0.00
2022-09-12T03:26:22.978Z,0.00
2022-09-12T03:26:56.910Z,0.00
2022-09-12T03:27:28.784Z,0.00
2022-09-12T03:27:51.575Z,0.00
2022-09-12T03:28:14.117Z,0.00
2022-09-12T03:28:48.623Z,0.00
2022-09-12T03:29:20.945Z,0.00
2022-09-12T03:29:52.155Z,0.00
2022-09-12T03:30:23.243Z,0.00
2022-09-12T03:30:56.193Z,0.00
2022-09-12T03:31:28.344Z,0.00
2022-09-12T03:31:51.093Z,0.00
2022-09-12T03:32:13.547Z,0.00
2022-09-12T03:32:48.416Z,0.00
2022-09-12T03:33:20.148Z,0.00
2022-09-12T03:33:52.399Z,0.00
2022-09-12T03:34:22.957Z,0.00
2022-09-12T03:34:58.523Z,0.00
2022-09-12T03:35:28.016Z,0.00
2022-09-12T03:35:50.617Z,0.00
2022-09-12T03:36:13.444Z,0.00
2022-09-12T03:36:48.257Z,0.00
2022-09-12T03:37:20.238Z,0.00
2022-09-12T03:37:53.132Z,0.00
2022-09-12T03:38:23.803Z,0.00
2022-09-12T03:38:56.754Z,0.00
2022-09-12T03:39:28.168Z,0.00
2022-09-12T03:39:50.860Z,0.00
2022-09-12T03:40:13.309Z,0.00
2022-09-12T03:40:51.451Z,0.00
2022-09-12T03:41:20.306Z,0.00
2022-09-12T03:41:53.280Z,0.00
2022-09-12T03:42:23.397Z,0.00
2022-09-12T03:42:56.355Z,0.00
2022-09-12T03:43:28.957Z,0.00
2022-09-12T03:43:51.764Z,0.00
2022-09-12T03:44:14.443Z,0.00
2022-09-12T03:44:48.280Z,0.00
2022-09-12T03:45:20.370Z,0.00
2022-09-12T03:45:52.517Z,0.00
2022-09-12T03:46:23.769Z,0.00
2022-09-12T03:46:56.080Z,0.00
2022-09-12T03:47:28.805Z,0.00
2022-09-12T03:47:51.479Z,0.00
2022-09-12T03:48:13.976Z,0.00
2022-09-12T03:48:48.396Z,0.00
2022-09-12T03:49:21.032Z,0.00
2022-09-12T03:49:52.241Z,0.00
2022-09-12T03:50:22.701Z,0.00
2022-09-12T03:50:56.268Z,0.00
2022-09-12T03:51:28.494Z,0.00
2022-09-12T03:51:50.843Z,0.00
2022-09-12T03:52:13.584Z,0.00
2022-09-12T03:52:48.138Z,0.00
2022-09-12T03:53:20.746Z,0.00
2022-09-12T03:53:52.390Z,0.00
2022-09-12T03:54:23.206Z,0.00
2022-09-12T03:54:56.531Z,0.00
2022-09-12T03:55:30.995Z,0.00
2022-09-12T03:55:53.346Z,0.00
2022-09-12T03:56:15.908Z,0.00
2022-09-12T03:56:48.480Z,0.00
2022-09-12T03:57:20.754Z,0.00
2022-09-12T03:57:53.729Z,0.00
2022-09-12T03:58:23.080Z,0.00
2022-09-12T03:58:56.127Z,0.00
2022-09-12T03:59:28.195Z,0.00
2022-09-12T03:59:51.004Z,0.00
2022-09-12T04:00:19.081Z,0.00
2022-09-12T04:00:48.205Z,0.00
2022-09-12T04:01:20.510Z,0.00
2022-09-12T04:01:52.391Z,0.00
2022-09-12T04:02:22.939Z,0.00
2022-09-12T04:02:56.058Z,0.00
2022-09-12T04:03:29.527Z,0.00
2022-09-12T04:03:51.848Z,0.00
2022-09-12T04:04:16.719Z,0.00
2022-09-12T04:04:48.964Z,0.00
2022-09-12T04:05:20.317Z,0.00
2022-09-12T04:05:52.892Z,0.00
2022-09-12T04:06:22.840Z,0.00
2022-09-12T04:06:57.146Z,0.00
2022-09-12T04:07:28.612Z,0.00
2022-09-12T04:07:51.385Z,0.00
2022-09-12T04:08:15.428Z,0.00
2022-09-12T04:08:48.141Z,0.00
2022-09-12T04:09:20.417Z,0.00
2022-09-12T04:09:52.046Z,0.00
2022-09-12T04:10:22.810Z,0.00
2022-09-12T04:10:56.657Z,0.00
2022-09-12T04:11:29.019Z,0.00
2022-09-12T04:11:52.384Z,0.00
2022-09-12T04:12:16.177Z,0.00
2022-09-12T04:12:48.723Z,0.00
2022-09-12T04:13:25.747Z,0.00
2022-09-12T04:13:53.806Z,0.00
2022-09-12T04:14:22.965Z,0.00
2022-09-12T04:14:56.379Z,0.00
2022-09-12T04:15:28.568Z,0.00
2022-09-12T04:15:51.160Z,0.00
2022-09-12T04:16:16.608Z,0.00
2022-09-12T04:16:48.510Z,0.00
2022-09-12T04:17:21.137Z,0.00
2022-09-12T04:17:52.261Z,0.00
2022-09-12T04:18:22.913Z,0.00
2022-09-12T04:18:56.309Z,0.00
2022-09-12T04:19:28.385Z,0.00
2022-09-12T04:19:51.031Z,0.00
2022-09-12T04:20:13.444Z,0.00
2022-09-12T04:20:49.695Z,0.00
2022-09-12T04:21:20.509Z,0.00
2022-09-12T04:21:52.242Z,0.00
2022-09-12T04:22:23.494Z,0.00
2022-09-12T04:22:57.755Z,0.00
2022-09-12T04:23:28.099Z,0.00
2022-09-12T04:23:50.708Z,0.00
2022-09-12T04:24:13.237Z,0.00
2022-09-12T04:24:48.206Z,0.00
2022-09-12T04:25:20.532Z,0.00
2022-09-12T04:25:52.699Z,0.00
2022-09-12T04:26:23.026Z,0.00
2022-09-12T04:26:56.129Z,0.00
2022-09-12T04:27:28.402Z,0.00
2022-09-12T04:27:51.024Z,0.00
2022-09-12T04:28:13.488Z,0.00
2022-09-12T04:28:48.203Z,0.00
2022-09-12T04:29:20.254Z,0.00
2022-09-12T04:29:53.199Z,0.00
2022-09-12T04:30:22.771Z,0.00
2022-09-12T04:30:56.232Z,0.00
2022-09-12T04:31:28.177Z,0.00
2022-09-12T04:31:50.748Z,0.00
2022-09-12T04:32:13.838Z,0.00
2022-09-12T04:32:48.351Z,0.00
2022-09-12T04:33:20.303Z,0.00
2022-09-12T04:33:53.512Z,0.00
2022-09-12T04:34:23.721Z,0.00
2022-09-12T04:34:56.120Z,0.00
2022-09-12T04:35:28.679Z,0.00
2022-09-12T04:35:50.849Z,0.00
2022-09-12T04:36:14.251Z,0.00
2022-09-12T04:36:48.593Z,0.00
2022-09-12T04:37:20.523Z,0.00
2022-09-12T04:37:53.004Z,0.00
2022-09-12T04:38:22.874Z,0.00
2022-09-12T04:38:56.574Z,0.00
2022-09-12T04:39:28.795Z,0.00
2022-09-12T04:39:51.286Z,0.00
2022-09-12T04:40:14.004Z,0.00
2022-09-12T04:40:48.449Z,0.00
2022-09-12T04:41:21.046Z,0.00
2022-09-12T04:41:52.149Z,0.00
2022-09-12T04:42:24.380Z,0.00
2022-09-12T04:42:56.331Z,0.00
2022-09-12T04:43:28.638Z,0.00
2022-09-12T04:43:51.026Z,0.00
2022-09-12T04:44:13.722Z,0.00
2022-09-12T04:44:49.005Z,0.00
2022-09-12T04:45:21.416Z,0.00
2022-09-12T04:45:52.389Z,0.00
2022-09-12T04:46:22.927Z,0.00
2022-09-12T04:46:57.645Z,0.00
2022-09-12T04:47:28.587Z,0.36
2022-09-12T04:47:51.378Z,0.00
2022-09-12T04:48:13.699Z,0.00
2022-09-12T04:48:48.192Z,0.00
2022-09-12T04:49:23.578Z,0.36
2022-09-12T04:49:52.179Z,0.00
2022-09-12T04:50:24.033Z,0.00
2022-09-12T04:50:56.215Z,0.36
2022-09-12T04:51:28.355Z,0.00
2022-09-12T04:51:50.971Z,0.36
2022-09-12T04:52:13.306Z,0.36
2022-09-12T04:52:48.183Z,0.36
2022-09-12T04:53:23.348Z,0.36
2022-09-12T04:53:53.250Z,0.85
2022-09-12T04:54:23.027Z,1.22
2022-09-12T04:54:56.607Z,1.71
2022-09-12T04:55:28.979Z,1.22
2022-09-12T04:55:51.859Z,1.22
2022-09-12T04:56:14.524Z,1.71
2022-09-12T04:56:48.205Z,1.71
2022-09-12T04:57:23.261Z,1.71
2022-09-12T04:57:52.478Z,2.57
2022-09-12T04:58:23.917Z,2.94
2022-09-12T04:58:56.714Z,2.57
2022-09-12T04:59:28.998Z,2.94
2022-09-12T04:59:51.626Z,2.57
2022-09-12T05:00:14.127Z,3.43
2022-09-12T05:00:49.427Z,3.43
2022-09-12T05:01:20.707Z,3.43
2022-09-12T05:01:52.564Z,3.79
2022-09-12T05:02:24.435Z,4.28
2022-09-12T05:02:56.214Z,3.79
2022-09-12T05:03:28.236Z,4.77
2022-09-12T05:03:50.842Z,4.77
2022-09-12T05:04:16.766Z,4.77
2022-09-12T05:04:48.718Z,5.14
2022-09-12T05:05:20.880Z,5.14
2022-09-12T05:05:55.852Z,5.63
2022-09-12T05:06:26.405Z,6.48
2022-09-12T05:06:56.620Z,5.99
2022-09-12T05:07:28.479Z,6.48
2022-09-12T05:07:51.195Z,6.48
2022-09-12T05:08:13.834Z,7.34
2022-09-12T05:08:49.337Z,6.48
2022-09-12T05:09:20.102Z,7.70
2022-09-12T05:09:52.442Z,7.70
2022-09-12T05:10:26.961Z,8.19
2022-09-12T05:10:56.817Z,8.19
2022-09-12T05:11:46.789Z,8.56
2022-09-12T05:12:16.671Z,8.19
2022-09-12T05:12:48.168Z,9.54
2022-09-12T05:13:25.712Z,9.91
2022-09-12T05:13:52.462Z,9.91
2022-09-12T05:14:22.737Z,10.77
2022-09-12T05:14:56.319Z,10.77
2022-09-12T05:15:28.290Z,11.25
2022-09-12T05:15:50.918Z,10.39
2022-09-12T05:16:13.338Z,10.77
2022-09-12T05:16:49.588Z,11.25
2022-09-12T05:17:20.101Z,11.62
2022-09-12T05:17:52.301Z,12.48
2022-09-12T05:18:22.741Z,12.97
2022-09-12T05:18:56.228Z,12.48
2022-09-12T05:19:28.581Z,12.97
2022-09-12T05:19:51.526Z,12.48
2022-09-12T05:20:13.817Z,12.97
2022-09-12T05:20:48.723Z,12.97
2022-09-12T05:21:20.423Z,14.31
2022-09-12T05:21:52.075Z,14.31
2022-09-12T05:22:22.709Z,14.68
2022-09-12T05:22:56.196Z,14.31
2022-09-12T05:23:28.517Z,15.53
2022-09-12T05:23:50.927Z,15.53
2022-09-12T05:24:15.073Z,16.02
2022-09-12T05:24:53.999Z,16.02
2022-09-12T05:25:20.189Z,17.25
2022-09-12T05:25:52.328Z,16.39
2022-09-12T05:26:22.920Z,17.25
2022-09-12T05:26:56.110Z,17.73
2022-09-12T05:27:28.354Z,17.73
2022-09-12T05:27:50.973Z,18.11
2022-09-12T05:28:14.985Z,18.60
2022-09-12T05:28:48.131Z,19.08
2022-09-12T05:29:20.267Z,19.45
2022-09-12T05:29:52.204Z,19.45
2022-09-12T05:30:22.810Z,20.31
2022-09-12T05:30:56.268Z,20.31
2022-09-12T05:31:29.313Z,20.80
2022-09-12T05:31:51.458Z,20.80
2022-09-12T05:32:13.826Z,21.65
2022-09-12T05:32:48.670Z,21.16
2022-09-12T05:33:24.928Z,21.65
2022-09-12T05:33:52.303Z,22.51
2022-09-12T05:34:22.955Z,22.02
2022-09-12T05:34:56.408Z,22.51
2022-09-12T05:35:30.343Z,22.87
2022-09-12T05:35:51.201Z,22.51
2022-09-12T05:36:13.688Z,22.51
2022-09-12T05:36:48.229Z,23.36
2022-09-12T05:37:20.153Z,23.36
2022-09-12T05:37:52.536Z,24.22
2022-09-12T05:38:22.704Z,24.22
2022-09-12T05:38:56.045Z,24.22
2022-09-12T05:39:30.658Z,24.71
2022-09-12T05:39:51.350Z,25.07
2022-09-12T05:40:13.685Z,25.07
2022-09-12T05:40:48.235Z,25.94
2022-09-12T05:41:24.724Z,25.56
2022-09-12T05:41:52.209Z,26.42
2022-09-12T05:42:24.250Z,26.42
2022-09-12T05:42:56.588Z,26.42
2022-09-12T05:43:31.054Z,26.42
2022-09-12T05:43:50.931Z,26.79
2022-09-12T05:44:13.250Z,27.28
2022-09-12T05:44:48.444Z,27.28
2022-09-12T05:45:20.120Z,27.65
2022-09-12T05:45:53.757Z,27.65
2022-09-12T05:46:22.857Z,28.14
2022-09-12T05:46:56.072Z,28.14
2022-09-12T05:47:28.124Z,28.14
2022-09-12T05:47:51.037Z,28.14
2022-09-12T05:48:13.380Z,28.63
2022-09-12T05:48:51.446Z,28.63
2022-09-12T05:49:20.275Z,28.99
2022-09-12T05:49:57.697Z,28.99
2022-09-12T05:50:24.232Z,29.85
2022-09-12T05:50:56.334Z,30.34
2022-09-12T05:51:28.286Z,30.34
2022-09-12T05:51:50.996Z,30.70
2022-09-12T05:52:13.515Z,30.70
2022-09-12T05:52:48.425Z,30.70
2022-09-12T05:53:20.185Z,30.34
2022-09-12T05:53:52.038Z,30.70
2022-09-12T05:54:22.711Z,30.34
2022-09-12T05:54:56.412Z,31.19
2022-09-12T05:55:28.173Z,31.56
2022-09-12T05:55:51.258Z,30.70
2022-09-12T05:56:13.650Z,31.19
2022-09-12T05:56:48.101Z,32.05
2022-09-12T05:57:20.021Z,32.05
2022-09-12T05:57:52.551Z,32.05
2022-09-12T05:58:22.856Z,32.90
2022-09-12T05:58:56.330Z,32.42
2022-09-12T05:59:28.170Z,32.90
2022-09-12T05:59:51.425Z,32.42
2022-09-12T06:00:34.187Z,34.25
2022-09-12T06:00:56.214Z,35.48
2022-09-12T06:01:18.671Z,36.82
2022-09-12T06:01:52.238Z,39.88
2022-09-12T06:02:23.039Z,40.24
2022-09-12T06:02:56.148Z,40.73
2022-09-12T06:03:28.711Z,41.59
2022-09-12T06:03:52.948Z,41.10
2022-09-12T06:04:13.899Z,41.10
2022-09-12T06:04:48.440Z,41.59
2022-09-12T06:05:20.279Z,41.96
2022-09-12T06:05:52.113Z,44.16
2022-09-12T06:06:24.239Z,43.31
2022-09-12T06:06:56.276Z,44.16
2022-09-12T06:07:28.162Z,44.16
2022-09-12T06:07:53.526Z,44.16
2022-09-12T06:08:13.331Z,45.02
2022-09-12T06:08:48.492Z,46.36
2022-09-12T06:09:20.181Z,46.73
2022-09-12T06:09:52.317Z,48.07
2022-09-12T06:10:22.953Z,47.71
2022-09-12T06:11:00.366Z,47.22
2022-09-12T06:11:28.125Z,47.71
2022-09-12T06:11:50.858Z,48.56
2022-09-12T06:12:13.171Z,48.93
2022-09-12T06:12:48.153Z,50.28
2022-09-12T06:13:25.620Z,51.14
2022-09-12T06:13:52.239Z,51.50
2022-09-12T06:14:22.980Z,50.28
2022-09-12T06:14:57.566Z,50.28
2022-09-12T06:15:28.223Z,51.14
2022-09-12T06:15:51.440Z,51.14
2022-09-12T06:16:13.923Z,51.14
2022-09-12T06:16:48.268Z,51.50
2022-09-12T06:17:20.152Z,51.50
2022-09-12T06:17:52.141Z,48.56
2022-09-12T06:18:22.709Z,48.93
2022-09-12T06:18:56.196Z,48.07
2022-09-12T06:19:28.347Z,48.93
2022-09-12T06:19:50.959Z,49.79
2022-09-12T06:20:13.313Z,50.28
2022-09-12T06:20:48.158Z,50.28
2022-09-12T06:21:20.442Z,50.28
2022-09-12T06:21:52.118Z,50.65
2022-09-12T06:22:22.791Z,51.99
2022-09-12T06:22:56.134Z,52.48
2022-09-12T06:23:28.134Z,51.50
2022-09-12T06:23:51.018Z,49.79
2022-09-12T06:24:13.655Z,48.93
2022-09-12T06:24:48.308Z,49.42
2022-09-12T06:25:20.342Z,48.07
2022-09-12T06:25:52.040Z,50.28
2022-09-12T06:26:22.950Z,52.85
2022-09-12T06:26:56.380Z,55.90
2022-09-12T06:27:28.192Z,57.25
2022-09-12T06:27:51.078Z,57.62
2022-09-12T06:28:13.452Z,59.33
2022-09-12T06:28:48.169Z,60.68
2022-09-12T06:29:20.189Z,62.88
2022-09-12T06:29:52.377Z,62.88
2022-09-12T06:30:25.506Z,62.02
2022-09-12T06:30:56.317Z,60.19
2022-09-12T06:31:28.050Z,60.19
2022-09-12T06:31:50.945Z,63.24
2022-09-12T06:32:13.235Z,65.45
2022-09-12T06:32:48.258Z,65.45
2022-09-12T06:33:20.215Z,66.80
2022-09-12T06:33:52.169Z,67.16
2022-09-12T06:34:25.260Z,66.31
2022-09-12T06:34:56.154Z,68.02
2022-09-12T06:35:28.272Z,68.87
2022-09-12T06:35:51.676Z,69.36
2022-09-12T06:36:14.053Z,71.07
2022-09-12T06:36:48.224Z,71.93